This is the latest recevied weather packets stored in our database for station/object N0EDB-13. If no packets are shown the sender has not sent any weather packets the latest 10 day(s).
| Time | Temp. | Humidity | Pressure | Rain* | Wind** | Luminosity | Snow |
|---|---|---|---|---|---|---|---|
| 1777422692 | 16.67° C | 27% | 1483.7 hPa | 0 mm | - | 216 W/m² | - |
| 1777422391 | 16.67° C | 28% | 1483.5 hPa | 0 mm | - | 234 W/m² | - |
| 1777422091 | 16.67° C | 27% | 1482.9 hPa | 0 mm | - | 241 W/m² | - |
| 1777421791 | 17.22° C | 27% | 1482.4 hPa | 0 mm | - | 241 W/m² | - |
| 1777421490 | 17.22° C | 26% | 1481.9 hPa | 0 mm | - | 269 W/m² | - |
| 1777421190 | 17.22° C | 27% | 1481.8 hPa | 0 mm | - | 303 W/m² | - |
| 1777420889 | 17.78° C | 26% | 1481 hPa | 0 mm | - | 310 W/m² | - |
| 1777420589 | 17.78° C | 27% | 1480.3 hPa | 0 mm | - | 362 W/m² | - |
| 1777420288 | 17.78° C | 29% | 1480.5 hPa | 0 mm | - | 415 W/m² | - |
| 1777419988 | 17.78° C | 30% | 1480.5 hPa | 0 mm | - | 473 W/m² | - |
| 1777419688 | 17.22° C | 31% | 1481.9 hPa | 0 mm | - | 501 W/m² | - |
| 1777419387 | 17.22° C | 31% | 1482.4 hPa | 0 mm | - | 521 W/m² | - |
| 1777419087 | 16.67° C | 32% | 1483.7 hPa | 0 mm | - | 482 W/m² | - |
| 1777418787 | 16.11° C | 32% | 1484.3 hPa | 0 mm | - | 454 W/m² | - |
| 1777418487 | 16.11° C | 32% | 1484.4 hPa | 0 mm | - | 455 W/m² | - |
| 1777418186 | 16.11° C | 32% | 1484.8 hPa | 0 mm | - | 495 W/m² | - |
| 1777417886 | 15.56° C | 32% | 1485.7 hPa | 0 mm | - | 480 W/m² | - |
| 1777417585 | 16.11° C | 35% | 1484.9 hPa | 0 mm | - | 166 W/m² | - |
| 1777417284 | 16.67° C | 32% | 1482.6 hPa | 0 mm | - | 533 W/m² | - |
| 1777416984 | 17.22° C | 32% | 1482.2 hPa | 0 mm | - | 534 W/m² | - |
| 1777416684 | 16.67° C | 31% | 1482.9 hPa | 0 mm | - | 557 W/m² | - |
| 1777416383 | 16.67° C | 33% | 1483.1 hPa | 0 mm | - | 568 W/m² | - |
| 1777416083 | 16.67° C | 33% | 1482.6 hPa | 0 mm | - | 600 W/m² | - |
| 1777415782 | 17.22° C | 33% | 1482.1 hPa | 0 mm | - | 623 W/m² | - |
| 1777415481 | 16.67° C | 33% | 1482.1 hPa | 0 mm | - | 623 W/m² | - |
* Rain latest hour (hover to see other rain measurements)
** Current wind speed in m/s (hover to see current wind gust speed)